Time;durP1;ratioP1;P1;durP2;ratioP2;P2;SDS_P1;SDS_P2;PMS_P1;PMS_P2;Temp;Humidity;BMP_temperature;BMP_pressure;BME280_temperature;BME280_humidity;BME280_pressure;Samples;Min_cycle;Max_cycle;Signal;HPM_P1;HPM_P2
2023/05/20 00:01:03;;;;;;;;;11.00;7.25;;;;;;;;5014396;28;45400;-69
2023/05/20 00:03:29;;;;;;;;;13.00;10.00;;;;;;;;5013919;28;45527;-69
2023/05/20 00:05:54;;;;;;;;;12.25;10.75;;;;;;;;5013987;28;45335;-69
2023/05/20 00:08:19;;;;;;;;;8.75;8.75;;;;;;;;5014130;28;45252;-69
2023/05/20 00:10:45;;;;;;;;;10.50;9.75;;;;;;;;5013333;28;45385;-70
2023/05/20 00:13:10;;;;;;;;;10.75;8.50;;;;;;;;5014365;28;45424;-68
2023/05/20 00:15:35;;;;;;;;;10.50;10.50;;;;;;;;5013575;28;45567;-68
2023/05/20 00:18:01;;;;;;;;;10.00;8.00;;;;;;;;4997808;28;45324;-68
2023/05/20 00:20:26;;;;;;;;;9.75;9.75;;;;;;;;5013789;28;45344;-68
2023/05/20 00:22:51;;;;;;;;;9.75;8.75;;;;;;;;5007868;28;45430;-68
2023/05/20 00:25:16;;;;;;;;;8.00;7.00;;;;;;;;4997900;28;45375;-69
2023/05/20 00:27:42;;;;;;;;;8.00;7.00;;;;;;;;4997485;28;45254;-69
2023/05/20 00:30:07;;;;;;;;;10.50;9.75;;;;;;;;4997534;28;45325;-69
2023/05/20 00:32:33;;;;;;;;;6.75;6.75;;;;;;;;4996190;28;45349;-69
2023/05/20 00:34:59;;;;;;;;;8.00;8.00;;;;;;;;4995948;28;45985;-69
2023/05/20 00:37:25;;;;;;;;;13.75;8.75;;;;;;;;4997726;28;45783;-70
2023/05/20 00:39:50;;;;;;;;;8.75;8.75;;;;;;;;4997594;28;45363;-68
2023/05/20 00:42:21;;;;;;;;;8.50;8.00;;;;;;;;4997576;28;45376;-68
2023/05/20 00:44:47;;;;;;;;;9.00;9.00;;;;;;;;4996888;28;46292;-69
2023/05/20 00:47:13;;;;;;;;;7.50;7.50;;;;;;;;4997745;28;45443;-68
2023/05/20 00:49:38;;;;;;;;;8.00;6.75;;;;;;;;4997097;28;45521;-69
2023/05/20 00:52:04;;;;;;;;;6.25;6.25;;;;;;;;5007565;28;45603;-69
2023/05/20 00:54:30;;;;;;;;;7.50;7.50;;;;;;;;5015074;28;45665;-69
2023/05/20 00:56:55;;;;;;;;;10.25;10.25;;;;;;;;5016246;28;45469;-69
2023/05/20 00:59:20;;;;;;;;;8.25;8.25;;;;;;;;5016618;28;45551;-71
2023/05/20 01:01:46;;;;;;;;;8.50;7.75;;;;;;;;5017245;28;45353;-70
2023/05/20 01:04:11;;;;;;;;;8.50;7.75;;;;;;;;5016451;28;46021;-71
2023/05/20 01:06:38;;;;;;;;;8.00;8.00;;;;;;;;5016608;28;45392;-70
2023/05/20 01:09:04;;;;;;;;;13.25;7.75;;;;;;;;5006741;28;45385;-70
2023/05/20 01:11:33;;;;;;;;;8.25;6.75;;;;;;;;4995680;28;45282;-68
2023/05/20 01:14:02;;;;;;;;;7.00;7.00;;;;;;;;4995316;28;45407;-68
2023/05/20 01:16:29;;;;;;;;;7.00;7.00;;;;;;;;4996454;28;45412;-68
2023/05/20 01:18:56;;;;;;;;;7.00;5.00;;;;;;;;4995814;28;45520;-68
2023/05/20 01:21:22;;;;;;;;;7.00;6.00;;;;;;;;4996473;28;45527;-68
2023/05/20 01:23:47;;;;;;;;;7.00;6.50;;;;;;;;4996045;28;45476;-68
2023/05/20 01:26:12;;;;;;;;;9.50;7.50;;;;;;;;4996086;28;45520;-68
2023/05/20 01:28:38;;;;;;;;;9.50;8.50;;;;;;;;4995537;28;45348;-68
2023/05/20 01:31:04;;;;;;;;;12.75;10.50;;;;;;;;4996536;28;45531;-68
2023/05/20 01:33:30;;;;;;;;;8.25;6.75;;;;;;;;4995838;28;45926;-68
2023/05/20 01:35:56;;;;;;;;;12.25;8.25;;;;;;;;4995759;28;45436;-68
2023/05/20 01:38:22;;;;;;;;;7.75;7.00;;;;;;;;4995955;28;45326;-68
2023/05/20 01:40:48;;;;;;;;;9.50;7.25;;;;;;;;4996305;28;45376;-68
2023/05/20 01:43:14;;;;;;;;;7.00;6.75;;;;;;;;4996088;28;46388;-68
2023/05/20 01:45:40;;;;;;;;;9.50;9.50;;;;;;;;4996647;28;45313;-70
2023/05/20 01:48:07;;;;;;;;;10.00;7.75;;;;;;;;4996797;28;45429;-71
2023/05/20 01:50:32;;;;;;;;;9.25;8.25;;;;;;;;4996046;28;45445;-68
2023/05/20 01:52:57;;;;;;;;;5.50;5.25;;;;;;;;4995980;28;46128;-69
2023/05/20 01:55:23;;;;;;;;;9.50;8.75;;;;;;;;4994643;28;45568;-69
2023/05/20 01:57:49;;;;;;;;;9.00;9.00;;;;;;;;4995409;28;45415;-69
2023/05/20 02:00:14;;;;;;;;;11.25;9.75;;;;;;;;4997437;28;45614;-69
2023/05/20 02:02:39;;;;;;;;;9.50;8.50;;;;;;;;5013242;28;45759;-69
2023/05/20 02:05:05;;;;;;;;;9.25;8.25;;;;;;;;5014862;28;45479;-69
2023/05/20 02:07:30;;;;;;;;;13.25;8.25;;;;;;;;5014699;28;45399;-69
2023/05/20 02:09:55;;;;;;;;;8.50;7.00;;;;;;;;5015158;28;45404;-70
2023/05/20 02:12:20;;;;;;;;;11.75;8.50;;;;;;;;5014720;28;45363;-70
2023/05/20 02:14:46;;;;;;;;;8.00;8.00;;;;;;;;5014815;28;45387;-70
2023/05/20 02:17:13;;;;;;;;;7.25;7.25;;;;;;;;5015621;28;45313;-70
2023/05/20 02:19:38;;;;;;;;;11.00;8.50;;;;;;;;5015515;28;45547;-70
2023/05/20 02:22:03;;;;;;;;;10.75;10.00;;;;;;;;5013343;28;47556;-70
2023/05/20 02:24:29;;;;;;;;;12.00;9.00;;;;;;;;5015175;28;45346;-70
2023/05/20 02:26:56;;;;;;;;;9.25;8.75;;;;;;;;5014732;28;45387;-70
2023/05/20 02:29:21;;;;;;;;;8.00;8.00;;;;;;;;5014430;28;45454;-69
2023/05/20 02:31:46;;;;;;;;;10.50;9.50;;;;;;;;5013225;28;46142;-69
2023/05/20 02:34:12;;;;;;;;;7.50;6.75;;;;;;;;4994748;28;46443;-69
2023/05/20 02:36:37;;;;;;;;;9.00;7.00;;;;;;;;4995110;28;45560;-69
2023/05/20 02:39:02;;;;;;;;;8.50;8.25;;;;;;;;4994407;28;45816;-69
2023/05/20 02:41:28;;;;;;;;;14.50;10.75;;;;;;;;4994020;28;45459;-69
2023/05/20 02:43:53;;;;;;;;;10.25;9.25;;;;;;;;4994109;28;45399;-69
2023/05/20 02:46:18;;;;;;;;;10.75;8.00;;;;;;;;4994428;28;45464;-69
2023/05/20 02:48:44;;;;;;;;;8.00;7.75;;;;;;;;4994556;28;45451;-69
2023/05/20 02:51:09;;;;;;;;;11.00;7.75;;;;;;;;4994504;28;46219;-69
2023/05/20 02:53:34;;;;;;;;;13.00;10.75;;;;;;;;4994731;28;45312;-69
2023/05/20 02:56:00;;;;;;;;;11.00;9.00;;;;;;;;4997652;28;45340;-69
2023/05/20 02:58:26;;;;;;;;;10.50;8.00;;;;;;;;5014625;28;45466;-69
2023/05/20 03:00:51;;;;;;;;;11.25;9.50;;;;;;;;5012625;28;46608;-69
2023/05/20 03:03:17;;;;;;;;;10.00;9.00;;;;;;;;5014169;28;45476;-69
2023/05/20 03:05:44;;;;;;;;;10.75;9.75;;;;;;;;5013697;28;45719;-69
2023/05/20 03:08:10;;;;;;;;;11.00;10.00;;;;;;;;5013729;28;45319;-69
2023/05/20 03:10:36;;;;;;;;;10.25;10.25;;;;;;;;5013601;28;46510;-69
2023/05/20 03:13:01;;;;;;;;;6.00;4.75;;;;;;;;5014184;28;45471;-69
2023/05/20 03:15:27;;;;;;;;;12.25;11.75;;;;;;;;5013498;28;45634;-69
2023/05/20 03:17:52;;;;;;;;;3.50;2.00;;;;;;;;5013762;28;45568;-70
2023/05/20 03:20:17;;;;;;;;;13.50;11.25;;;;;;;;5013630;28;45857;-69
2023/05/20 03:22:42;;;;;;;;;8.75;8.75;;;;;;;;5013778;28;45341;-69
2023/05/20 03:25:08;;;;;;;;;11.75;10.50;;;;;;;;5014137;28;45340;-69
2023/05/20 03:27:35;;;;;;;;;15.00;11.25;;;;;;;;5013737;28;45527;-69
2023/05/20 03:30:01;;;;;;;;;12.25;10.25;;;;;;;;5013564;28;47252;-68
2023/05/20 03:32:26;;;;;;;;;12.75;10.00;;;;;;;;5013554;28;45458;-69
2023/05/20 03:34:51;;;;;;;;;13.50;10.00;;;;;;;;5014031;28;45367;-68
2023/05/20 03:37:16;;;;;;;;;13.00;13.00;;;;;;;;5013764;28;45341;-69
2023/05/20 03:39:41;;;;;;;;;12.00;10.25;;;;;;;;5013364;28;45569;-69
2023/05/20 03:42:07;;;;;;;;;13.25;11.50;;;;;;;;5012312;28;45462;-69
2023/05/20 03:44:32;;;;;;;;;12.00;10.75;;;;;;;;5013441;28;45463;-68
2023/05/20 03:46:57;;;;;;;;;13.00;12.50;;;;;;;;5013504;28;45472;-69
2023/05/20 03:49:22;;;;;;;;;12.75;11.50;;;;;;;;5005552;28;47139;-69
2023/05/20 03:51:47;;;;;;;;;10.00;7.75;;;;;;;;4993767;28;45381;-68
2023/05/20 03:54:15;;;;;;;;;12.00;12.00;;;;;;;;4997602;28;45489;-68
2023/05/20 03:56:40;;;;;;;;;13.25;12.25;;;;;;;;4997214;28;45577;-69
2023/05/20 03:59:05;;;;;;;;;17.75;13.75;;;;;;;;4996618;28;46434;-69
2023/05/20 04:01:31;;;;;;;;;14.00;12.25;;;;;;;;5011873;28;45538;-68
2023/05/20 04:03:56;;;;;;;;;16.50;15.00;;;;;;;;5016555;28;45473;-68
2023/05/20 04:06:21;;;;;;;;;14.50;13.25;;;;;;;;5016556;28;45407;-69
2023/05/20 04:08:47;;;;;;;;;12.50;11.50;;;;;;;;5016477;28;45565;-69
2023/05/20 04:11:12;;;;;;;;;14.00;12.50;;;;;;;;5016688;28;45431;-69
2023/05/20 04:13:37;;;;;;;;;14.25;11.50;;;;;;;;5016843;28;45443;-69
2023/05/20 04:16:02;;;;;;;;;16.50;13.25;;;;;;;;5016791;28;45407;-69
2023/05/20 04:18:30;;;;;;;;;16.25;14.75;;;;;;;;5016428;28;45617;-69
2023/05/20 04:20:56;;;;;;;;;12.50;12.50;;;;;;;;5016847;28;45395;-69
2023/05/20 04:23:21;;;;;;;;;15.75;13.50;;;;;;;;5016471;28;45446;-69
2023/05/20 04:25:47;;;;;;;;;14.25;12.75;;;;;;;;5016369;28;45570;-69
2023/05/20 04:28:15;;;;;;;;;15.25;15.25;;;;;;;;5016161;28;46302;-69
2023/05/20 04:30:41;;;;;;;;;16.00;14.25;;;;;;;;5016572;28;45373;-69
2023/05/20 04:33:06;;;;;;;;;13.75;12.25;;;;;;;;5016195;28;45505;-69
2023/05/20 04:35:33;;;;;;;;;14.75;11.00;;;;;;;;5016287;28;45603;-69
2023/05/20 04:37:59;;;;;;;;;12.50;11.75;;;;;;;;5015627;28;45571;-69
2023/05/20 04:40:26;;;;;;;;;11.75;10.00;;;;;;;;5015568;28;45416;-69
2023/05/20 04:42:51;;;;;;;;;15.50;14.00;;;;;;;;5016242;28;45565;-70
2023/05/20 04:45:17;;;;;;;;;17.00;15.00;;;;;;;;5013883;28;45442;-69
2023/05/20 04:47:43;;;;;;;;;17.50;16.50;;;;;;;;5012034;28;45699;-69
2023/05/20 04:50:12;;;;;;;;;12.75;11.75;;;;;;;;5013142;28;45720;-69
2023/05/20 04:52:38;;;;;;;;;17.00;14.50;;;;;;;;5013597;28;45442;-69
2023/05/20 04:55:04;;;;;;;;;17.50;14.00;;;;;;;;4998276;28;45627;-69
2023/05/20 04:57:29;;;;;;;;;19.00;13.75;;;;;;;;5015771;28;45666;-71
2023/05/20 04:59:57;;;;;;;;;14.50;12.50;;;;;;;;5015348;28;45599;-71
2023/05/20 05:02:23;;;;;;;;;15.00;15.00;;;;;;;;5015302;28;45651;-69
2023/05/20 05:04:48;;;;;;;;;14.00;13.50;;;;;;;;5015848;28;45640;-69
2023/05/20 05:07:13;;;;;;;;;17.25;16.25;;;;;;;;5015712;28;46443;-69
2023/05/20 05:09:38;;;;;;;;;14.75;13.50;;;;;;;;5014372;28;46190;-68
2023/05/20 05:12:04;;;;;;;;;13.75;12.25;;;;;;;;5011459;28;45246;-69
2023/05/20 05:14:29;;;;;;;;;19.00;17.00;;;;;;;;4995949;28;45616;-69
2023/05/20 05:16:54;;;;;;;;;15.25;14.25;;;;;;;;4997289;28;45379;-68
2023/05/20 05:19:19;;;;;;;;;13.25;12.25;;;;;;;;4994407;28;45381;-70
2023/05/20 05:21:46;;;;;;;;;14.25;13.25;;;;;;;;4995910;28;45476;-70
2023/05/20 05:24:11;;;;;;;;;11.50;11.50;;;;;;;;4995295;28;45734;-70
2023/05/20 05:26:36;;;;;;;;;13.00;12.25;;;;;;;;4995476;28;46504;-69
2023/05/20 05:29:02;;;;;;;;;15.75;13.00;;;;;;;;4995758;28;45527;-69
2023/05/20 05:31:27;;;;;;;;;18.25;16.25;;;;;;;;4995566;28;45376;-69
2023/05/20 05:33:52;;;;;;;;;17.00;15.00;;;;;;;;4996083;28;45561;-70
2023/05/20 05:36:17;;;;;;;;;16.25;13.75;;;;;;;;5001339;28;46414;-72
2023/05/20 05:38:43;;;;;;;;;17.00;15.50;;;;;;;;5013695;28;45581;-71
2023/05/20 05:41:08;;;;;;;;;14.75;14.50;;;;;;;;5014756;28;45470;-70
2023/05/20 05:43:33;;;;;;;;;18.00;14.75;;;;;;;;5014520;28;45464;-70
2023/05/20 05:45:59;;;;;;;;;13.25;13.25;;;;;;;;5015137;28;46251;-70
2023/05/20 05:48:24;;;;;;;;;14.50;13.25;;;;;;;;5007170;28;45455;-70
2023/05/20 05:50:49;;;;;;;;;14.50;14.25;;;;;;;;4995750;28;45430;-72
2023/05/20 05:53:15;;;;;;;;;18.00;11.50;;;;;;;;4995278;28;45381;-71
2023/05/20 05:55:40;;;;;;;;;24.25;13.25;;;;;;;;4995091;28;47118;-71
2023/05/20 05:58:05;;;;;;;;;13.25;13.00;;;;;;;;4995348;28;45338;-72
2023/05/20 06:00:30;;;;;;;;;18.50;12.50;;;;;;;;5003230;28;45471;-71
2023/05/20 06:02:55;;;;;;;;;11.00;11.00;;;;;;;;5015212;28;45317;-71
2023/05/20 06:05:21;;;;;;;;;12.25;12.25;;;;;;;;5014679;28;46334;-71
2023/05/20 06:07:46;;;;;;;;;12.50;12.50;;;;;;;;5015037;28;45613;-71
2023/05/20 06:10:11;;;;;;;;;18.25;15.50;;;;;;;;5015431;28;45392;-71
2023/05/20 06:12:36;;;;;;;;;15.00;12.25;;;;;;;;5015392;28;45479;-70
2023/05/20 06:15:02;;;;;;;;;15.25;14.00;;;;;;;;5013827;28;45291;-71
2023/05/20 06:17:27;;;;;;;;;12.50;12.00;;;;;;;;5013431;28;45483;-71
2023/05/20 06:19:52;;;;;;;;;17.25;16.00;;;;;;;;5014937;28;45439;-71
2023/05/20 06:22:17;;;;;;;;;16.25;13.00;;;;;;;;5014482;28;45288;-71
2023/05/20 06:24:43;;;;;;;;;14.50;14.50;;;;;;;;5014577;28;46775;-71
2023/05/20 06:27:08;;;;;;;;;16.50;15.00;;;;;;;;5014684;28;45380;-71
2023/05/20 06:29:33;;;;;;;;;15.75;15.75;;;;;;;;5015037;28;45774;-71
2023/05/20 06:31:58;;;;;;;;;13.50;12.50;;;;;;;;5014673;28;45729;-71
2023/05/20 06:34:23;;;;;;;;;15.25;13.00;;;;;;;;5014339;28;45532;-71
2023/05/20 06:36:49;;;;;;;;;18.75;15.75;;;;;;;;5014394;28;45618;-71
2023/05/20 06:39:14;;;;;;;;;14.50;13.25;;;;;;;;5014392;28;45337;-71
2023/05/20 06:41:39;;;;;;;;;18.25;14.50;;;;;;;;5013155;28;45763;-71
2023/05/20 06:44:05;;;;;;;;;16.00;14.50;;;;;;;;5013979;28;46307;-70
2023/05/20 06:46:31;;;;;;;;;13.00;12.50;;;;;;;;5014510;28;45350;-71
2023/05/20 06:48:56;;;;;;;;;15.50;13.50;;;;;;;;5009925;28;45380;-72
2023/05/20 06:51:21;;;;;;;;;13.50;12.75;;;;;;;;4994282;28;45563;-70
2023/05/20 06:53:46;;;;;;;;;14.00;14.00;;;;;;;;4994298;28;46138;-71
2023/05/20 06:56:12;;;;;;;;;11.25;10.25;;;;;;;;4995250;28;45370;-70
2023/05/20 06:58:37;;;;;;;;;18.00;15.00;;;;;;;;4995261;28;45553;-70
2023/05/20 07:01:02;;;;;;;;;14.50;13.50;;;;;;;;5006995;28;45412;-70
2023/05/20 07:03:27;;;;;;;;;13.50;13.25;;;;;;;;5013568;28;47234;-71
2023/05/20 07:05:52;;;;;;;;;13.50;12.00;;;;;;;;5002744;28;45605;-71
2023/05/20 07:08:18;;;;;;;;;16.50;14.25;;;;;;;;4994363;28;45400;-71
2023/05/20 07:10:43;;;;;;;;;12.50;11.25;;;;;;;;4994071;28;45397;-70
2023/05/20 07:13:09;;;;;;;;;12.50;12.00;;;;;;;;5006901;28;45925;-70
2023/05/20 07:15:34;;;;;;;;;16.00;14.50;;;;;;;;5013795;28;45435;-70
2023/05/20 07:17:59;;;;;;;;;18.50;15.25;;;;;;;;5013912;28;45380;-70
2023/05/20 07:20:25;;;;;;;;;12.00;12.00;;;;;;;;5013834;28;45458;-70
2023/05/20 07:22:50;;;;;;;;;15.00;14.25;;;;;;;;5013827;28;45488;-70
2023/05/20 07:25:15;;;;;;;;;15.25;15.25;;;;;;;;5000153;28;45565;-70
2023/05/20 07:27:40;;;;;;;;;16.00;16.00;;;;;;;;5002326;28;45605;-72
2023/05/20 07:30:06;;;;;;;;;16.00;14.25;;;;;;;;5015524;28;45489;-72
2023/05/20 07:32:31;;;;;;;;;14.50;13.50;;;;;;;;5015438;28;47286;-71
2023/05/20 07:34:56;;;;;;;;;16.00;16.00;;;;;;;;5015381;28;45399;-70
2023/05/20 07:37:22;;;;;;;;;14.25;13.25;;;;;;;;5016871;28;45453;-70
2023/05/20 07:39:47;;;;;;;;;11.00;11.00;;;;;;;;5017509;28;45309;-70
2023/05/20 07:42:12;;;;;;;;;14.75;13.50;;;;;;;;5017770;28;45928;-70
2023/05/20 07:44:37;;;;;;;;;12.75;11.50;;;;;;;;5017296;28;45551;-70
2023/05/20 07:47:03;;;;;;;;;15.75;15.25;;;;;;;;5016694;28;45349;-70
2023/05/20 07:49:28;;;;;;;;;13.50;13.50;;;;;;;;5014379;28;45352;-70
2023/05/20 07:51:53;;;;;;;;;14.75;14.00;;;;;;;;5016774;28;45708;-71
2023/05/20 07:54:18;;;;;;;;;20.75;16.25;;;;;;;;5016392;28;45590;-70
2023/05/20 07:56:44;;;;;;;;;15.75;12.25;;;;;;;;5015833;28;45440;-71
2023/05/20 07:59:09;;;;;;;;;12.25;12.25;;;;;;;;5016338;28;45514;-70
2023/05/20 08:01:35;;;;;;;;;10.50;10.50;;;;;;;;5016493;28;47376;-70
2023/05/20 08:04:00;;;;;;;;;13.25;13.25;;;;;;;;5014854;28;45424;-70
2023/05/20 08:06:25;;;;;;;;;15.00;13.75;;;;;;;;5016407;28;45506;-70
2023/05/20 08:08:53;;;;;;;;;18.25;15.00;;;;;;;;5004705;28;45607;-70
2023/05/20 08:11:18;;;;;;;;;15.00;14.00;;;;;;;;5012986;28;47055;-70
2023/05/20 08:13:44;;;;;;;;;10.00;10.00;;;;;;;;5016092;28;45404;-71
2023/05/20 08:16:09;;;;;;;;;13.75;13.75;;;;;;;;5017242;28;45514;-71
2023/05/20 08:18:36;;;;;;;;;12.75;11.50;;;;;;;;5016560;28;45461;-71
2023/05/20 08:21:01;;;;;;;;;13.00;11.75;;;;;;;;5007993;28;46803;-71
2023/05/20 08:23:27;;;;;;;;;12.75;12.50;;;;;;;;5009018;28;45397;-72
2023/05/20 08:25:52;;;;;;;;;16.25;14.25;;;;;;;;5014195;28;45471;-71
2023/05/20 08:28:17;;;;;;;;;14.25;11.50;;;;;;;;5014679;28;45487;-71
2023/05/20 08:30:43;;;;;;;;;17.75;12.75;;;;;;;;5012736;28;46395;-71
2023/05/20 08:33:08;;;;;;;;;11.00;11.00;;;;;;;;5013720;28;45765;-71
2023/05/20 08:35:34;;;;;;;;;13.75;13.00;;;;;;;;5016103;28;45574;-71
2023/05/20 08:38:00;;;;;;;;;10.75;9.25;;;;;;;;5006018;28;45371;-71
2023/05/20 08:40:25;;;;;;;;;11.75;10.50;;;;;;;;5015565;28;45535;-71
2023/05/20 08:42:54;;;;;;;;;14.00;12.75;;;;;;;;5015331;28;45517;-71
2023/05/20 08:45:20;;;;;;;;;15.00;13.25;;;;;;;;5014579;28;45463;-71
2023/05/20 08:47:45;;;;;;;;;10.50;9.50;;;;;;;;5015132;28;45543;-71
2023/05/20 08:52:47;;;;;;;;;14.25;13.00;;;;;;;;4971716;28;45523;-71
2023/05/20 08:55:14;;;;;;;;;9.50;9.50;;;;;;;;4962610;28;45365;-71
2023/05/20 08:57:40;;;;;;;;;10.00;10.00;;;;;;;;4960239;28;45497;-71
2023/05/20 09:00:11;;;;;;;;;9.50;9.50;;;;;;;;4963621;28;45527;-72
2023/05/20 09:02:37;;;;;;;;;13.00;10.00;;;;;;;;4956982;28;45387;-73
2023/05/20 09:05:03;;;;;;;;;8.75;8.00;;;;;;;;4972267;28;45446;-73
2023/05/20 09:07:29;;;;;;;;;8.25;8.25;;;;;;;;4964616;28;45461;-72
2023/05/20 09:09:54;;;;;;;;;11.00;10.25;;;;;;;;4966144;28;47280;-72
2023/05/20 09:12:20;;;;;;;;;9.25;8.00;;;;;;;;4963430;28;45373;-73
2023/05/20 09:14:45;;;;;;;;;9.25;9.00;;;;;;;;4973645;28;45422;-71
2023/05/20 09:17:11;;;;;;;;;7.50;7.50;;;;;;;;4961822;28;45439;-72
2023/05/20 09:19:36;;;;;;;;;10.00;7.00;;;;;;;;4967162;28;45517;-72
2023/05/20 09:22:02;;;;;;;;;27.50;25.75;;;;;;;;4960222;28;45583;-73
2023/05/20 09:24:27;;;;;;;;;7.00;7.00;;;;;;;;4977408;28;45483;-71
2023/05/20 09:26:53;;;;;;;;;6.50;6.50;;;;;;;;4958760;28;45333;-71
2023/05/20 09:29:20;;;;;;;;;4.25;4.25;;;;;;;;4962558;28;45389;-72
2023/05/20 09:31:46;;;;;;;;;7.75;7.00;;;;;;;;4966821;28;45660;-71
2023/05/20 09:34:11;;;;;;;;;6.25;5.25;;;;;;;;4958216;28;45540;-73
2023/05/20 09:36:38;;;;;;;;;4.75;3.50;;;;;;;;4973297;28;45484;-71
2023/05/20 09:39:06;;;;;;;;;7.00;5.00;;;;;;;;4944641;28;45562;-70
2023/05/20 09:41:49;;;;;;;;;5.75;5.75;;;;;;;;4969007;28;45477;-72
2023/05/20 09:44:15;;;;;;;;;8.25;7.00;;;;;;;;4970112;28;45452;-73
2023/05/20 09:46:41;;;;;;;;;4.00;4.00;;;;;;;;4958613;28;45548;-73
2023/05/20 09:49:07;;;;;;;;;5.50;5.50;;;;;;;;4971421;28;47391;-72
2023/05/20 09:51:33;;;;;;;;;5.25;3.75;;;;;;;;4952609;28;45401;-72
2023/05/20 09:53:59;;;;;;;;;7.50;6.25;;;;;;;;4967331;28;45405;-71
2023/05/20 09:56:25;;;;;;;;;6.00;6.00;;;;;;;;4961297;28;45358;-72
2023/05/20 09:58:56;;;;;;;;;4.25;4.25;;;;;;;;4971996;28;46560;-71
2023/05/20 10:01:22;;;;;;;;;7.00;5.50;;;;;;;;4952735;28;45525;-72
2023/05/20 10:03:47;;;;;;;;;7.00;6.00;;;;;;;;4963976;28;45413;-72
2023/05/20 10:06:19;;;;;;;;;4.50;4.50;;;;;;;;4969268;28;45389;-72
2023/05/20 10:09:03;;;;;;;;;5.25;3.00;;;;;;;;4959463;28;46012;-72
2023/05/20 10:11:51;;;;;;;;;5.00;4.25;;;;;;;;4968703;28;45417;-72
2023/05/20 10:14:35;;;;;;;;;7.00;5.75;;;;;;;;4961385;28;45433;-71
2023/05/20 10:17:11;;;;;;;;;5.00;4.50;;;;;;;;4972173;28;45557;-71
2023/05/20 10:19:37;;;;;;;;;5.75;5.75;;;;;;;;4958634;28;46201;-71
2023/05/20 10:22:06;;;;;;;;;4.00;4.00;;;;;;;;4955366;28;45464;-71
2023/05/20 10:24:54;;;;;;;;;3.50;3.50;;;;;;;;4957825;28;45389;-71
2023/05/20 10:27:19;;;;;;;;;5.75;5.75;;;;;;;;4948136;28;45485;-71
2023/05/20 10:29:48;;;;;;;;;3.75;3.75;;;;;;;;4958741;28;46962;-71
2023/05/20 10:32:22;;;;;;;;;4.00;4.00;;;;;;;;4954959;28;45833;-71
2023/05/20 10:34:49;;;;;;;;;5.00;4.00;;;;;;;;4955423;28;45536;-70
2023/05/20 10:37:25;;;;;;;;;4.00;4.00;;;;;;;;4955888;28;45386;-71
2023/05/20 10:39:50;;;;;;;;;6.25;5.50;;;;;;;;4955518;28;45443;-71
2023/05/20 10:42:26;;;;;;;;;6.00;6.00;;;;;;;;4966079;28;45385;-72
2023/05/20 10:44:51;;;;;;;;;5.25;5.25;;;;;;;;4956766;28;45461;-70
2023/05/20 10:47:17;;;;;;;;;5.50;4.75;;;;;;;;4955809;28;45469;-71
2023/05/20 10:49:46;;;;;;;;;6.00;6.00;;;;;;;;4966003;28;47187;-71
2023/05/20 10:52:15;;;;;;;;;8.50;8.00;;;;;;;;4956842;28;45361;-70
2023/05/20 10:54:53;;;;;;;;;6.00;6.00;;;;;;;;4950560;28;45461;-70
2023/05/20 10:57:18;;;;;;;;;4.00;3.25;;;;;;;;4957028;28;45670;-69
2023/05/20 10:59:44;;;;;;;;;5.50;5.50;;;;;;;;4955575;28;45409;-68
2023/05/20 11:02:10;;;;;;;;;8.25;8.25;;;;;;;;4937870;28;45382;-68
2023/05/20 11:04:36;;;;;;;;;7.25;5.25;;;;;;;;4953507;28;45612;-70
2023/05/20 11:07:01;;;;;;;;;5.75;5.75;;;;;;;;4955613;28;45356;-71
2023/05/20 11:09:27;;;;;;;;;3.25;3.25;;;;;;;;4945723;28;45513;-68
2023/05/20 11:11:53;;;;;;;;;4.50;4.50;;;;;;;;4944627;28;45430;-69
2023/05/20 11:14:18;;;;;;;;;4.25;4.25;;;;;;;;4954267;28;45516;-69
2023/05/20 11:16:44;;;;;;;;;2.75;2.75;;;;;;;;4949732;28;45351;-69
2023/05/20 11:19:16;;;;;;;;;5.00;5.00;;;;;;;;4954932;28;45914;-69
2023/05/20 11:21:42;;;;;;;;;2.25;2.25;;;;;;;;4945767;28;45421;-68
2023/05/20 11:24:07;;;;;;;;;5.00;3.00;;;;;;;;4948019;28;45508;-68
2023/05/20 11:26:33;;;;;;;;;1.75;1.75;;;;;;;;4955319;28;45369;-69
2023/05/20 11:28:58;;;;;;;;;2.25;2.25;;;;;;;;4951756;28;46231;-69
2023/05/20 11:31:25;;;;;;;;;3.00;3.00;;;;;;;;4954986;28;45533;-69
2023/05/20 11:33:51;;;;;;;;;4.00;4.00;;;;;;;;4952398;28;45437;-69
2023/05/20 11:36:16;;;;;;;;;2.25;2.25;;;;;;;;4945919;28;45631;-70
2023/05/20 11:38:41;;;;;;;;;7.25;5.25;;;;;;;;4945024;28;45335;-69
2023/05/20 11:41:06;;;;;;;;;2.25;2.25;;;;;;;;4951954;28;45379;-72
2023/05/20 11:43:32;;;;;;;;;3.50;3.50;;;;;;;;4944259;28;45521;-71
2023/05/20 11:46:00;;;;;;;;;3.00;3.00;;;;;;;;4955400;28;45594;-68
2023/05/20 11:48:25;;;;;;;;;4.25;3.75;;;;;;;;4955618;28;46694;-69
2023/05/20 11:50:52;;;;;;;;;5.25;4.00;;;;;;;;4953254;28;45669;-67
2023/05/20 11:53:18;;;;;;;;;3.00;3.00;;;;;;;;4954473;28;45402;-68
2023/05/20 11:55:54;;;;;;;;;0.75;0.75;;;;;;;;4954706;28;45644;-69
2023/05/20 11:58:20;;;;;;;;;4.75;4.75;;;;;;;;4954894;28;45451;-69
2023/05/20 12:00:45;;;;;;;;;3.25;3.25;;;;;;;;4955173;28;45334;-68
2023/05/20 12:03:11;;;;;;;;;8.75;6.00;;;;;;;;4953717;28;45346;-69
2023/05/20 12:05:36;;;;;;;;;6.00;4.00;;;;;;;;4954761;28;45385;-67
2023/05/20 12:08:02;;;;;;;;;2.50;2.00;;;;;;;;4958655;28;45548;-71
2023/05/20 12:10:28;;;;;;;;;3.00;3.00;;;;;;;;4955172;28;45390;-70
2023/05/20 12:12:53;;;;;;;;;5.00;5.00;;;;;;;;4955500;28;45565;-71
2023/05/20 12:15:18;;;;;;;;;5.00;3.75;;;;;;;;4958672;28;45377;-74
2023/05/20 12:17:45;;;;;;;;;5.25;4.75;;;;;;;;4958668;28;46195;-70
2023/05/20 12:20:11;;;;;;;;;3.25;3.25;;;;;;;;4958415;28;45471;-70
2023/05/20 12:22:37;;;;;;;;;4.00;4.00;;;;;;;;4958145;28;45520;-70
2023/05/20 12:25:02;;;;;;;;;2.25;2.25;;;;;;;;4957917;28;45529;-70
2023/05/20 12:27:27;;;;;;;;;3.00;3.00;;;;;;;;4956983;28;47694;-72
2023/05/20 12:29:52;;;;;;;;;2.50;2.50;;;;;;;;4956712;28;45879;-71
2023/05/20 12:32:19;;;;;;;;;6.25;5.75;;;;;;;;4958573;28;45371;-73
2023/05/20 12:34:44;;;;;;;;;4.50;4.50;;;;;;;;4958007;28;45562;-72
2023/05/20 12:37:10;;;;;;;;;5.00;5.00;;;;;;;;4958708;28;45524;-72
2023/05/20 12:39:35;;;;;;;;;7.50;5.25;;;;;;;;4957220;28;45354;-72
2023/05/20 12:42:00;;;;;;;;;2.50;2.50;;;;;;;;4958301;28;45354;-72
2023/05/20 12:44:26;;;;;;;;;3.25;3.25;;;;;;;;4958444;28;45552;-72
2023/05/20 12:46:53;;;;;;;;;5.50;5.00;;;;;;;;4956814;28;46008;-71
2023/05/20 12:49:18;;;;;;;;;2.25;2.25;;;;;;;;4956926;28;45406;-71
2023/05/20 12:51:44;;;;;;;;;3.75;3.75;;;;;;;;4957705;28;45362;-70
2023/05/20 12:54:09;;;;;;;;;4.25;4.25;;;;;;;;4957956;28;45649;-71
2023/05/20 12:56:34;;;;;;;;;4.75;4.75;;;;;;;;4958130;28;46433;-71
2023/05/20 12:59:00;;;;;;;;;6.50;6.25;;;;;;;;4957700;28;45355;-71
2023/05/20 13:01:26;;;;;;;;;5.25;4.00;;;;;;;;4958111;28;45440;-72
2023/05/20 13:03:52;;;;;;;;;3.75;3.75;;;;;;;;4958253;28;45370;-71
2023/05/20 13:06:17;;;;;;;;;3.50;3.00;;;;;;;;4957875;28;46557;-71
2023/05/20 13:08:44;;;;;;;;;4.75;4.75;;;;;;;;4957933;28;45393;-72
2023/05/20 13:11:09;;;;;;;;;4.00;4.00;;;;;;;;4956931;28;45354;-71
2023/05/20 13:13:34;;;;;;;;;3.00;3.00;;;;;;;;4957585;28;45361;-71
2023/05/20 13:15:59;;;;;;;;;4.00;4.00;;;;;;;;4957619;28;47096;-71
2023/05/20 13:18:25;;;;;;;;;4.25;4.25;;;;;;;;4957663;28;45326;-72
2023/05/20 13:20:50;;;;;;;;;9.00;7.25;;;;;;;;4956725;28;45349;-71
2023/05/20 13:23:15;;;;;;;;;4.25;4.25;;;;;;;;4957481;28;45323;-71
2023/05/20 13:25:40;;;;;;;;;4.00;2.75;;;;;;;;4955095;28;46121;-71
2023/05/20 13:28:06;;;;;;;;;6.00;5.00;;;;;;;;4957514;28;45339;-71
2023/05/20 13:30:31;;;;;;;;;5.25;5.25;;;;;;;;4957646;28;45382;-71
2023/05/20 13:32:56;;;;;;;;;5.00;3.75;;;;;;;;4956409;28;45394;-70
2023/05/20 13:35:22;;;;;;;;;5.00;5.00;;;;;;;;4957558;28;45503;-71
2023/05/20 13:37:47;;;;;;;;;4.50;4.50;;;;;;;;4957342;28;45373;-71
2023/05/20 13:40:12;;;;;;;;;4.00;4.00;;;;;;;;4957223;28;45370;-71
2023/05/20 13:42:37;;;;;;;;;4.00;3.00;;;;;;;;4957518;28;45354;-71
2023/05/20 13:45:03;;;;;;;;;3.75;3.75;;;;;;;;4957226;28;46459;-71
2023/05/20 13:47:28;;;;;;;;;5.00;4.00;;;;;;;;4957516;28;45334;-71
2023/05/20 13:49:53;;;;;;;;;5.00;5.00;;;;;;;;4957244;28;45302;-71
2023/05/20 13:52:19;;;;;;;;;4.25;4.25;;;;;;;;4953125;28;45445;-72
2023/05/20 13:54:46;;;;;;;;;3.75;3.75;;;;;;;;4937962;28;46017;-71
2023/05/20 13:57:11;;;;;;;;;5.00;5.00;;;;;;;;4938052;28;45474;-71
2023/05/20 13:59:37;;;;;;;;;5.00;5.00;;;;;;;;4938305;28;45406;-72
2023/05/20 14:02:02;;;;;;;;;4.50;4.50;;;;;;;;4955974;28;45604;-72
2023/05/20 14:04:27;;;;;;;;;5.00;5.00;;;;;;;;4956831;28;46351;-72
2023/05/20 14:06:53;;;;;;;;;6.50;6.50;;;;;;;;4955534;28;45440;-70
2023/05/20 14:09:18;;;;;;;;;5.00;5.00;;;;;;;;4957268;28;45450;-70
2023/05/20 14:11:43;;;;;;;;;5.25;5.25;;;;;;;;4955751;28;45605;-71
2023/05/20 14:14:08;;;;;;;;;3.25;3.25;;;;;;;;4956372;28;45531;-71
2023/05/20 14:16:34;;;;;;;;;3.25;3.25;;;;;;;;4957075;28;45493;-72
2023/05/20 14:18:59;;;;;;;;;7.75;6.00;;;;;;;;4955533;28;45397;-71
2023/05/20 14:21:24;;;;;;;;;4.25;4.00;;;;;;;;4956640;28;45295;-72
2023/05/20 14:23:50;;;;;;;;;5.25;4.75;;;;;;;;4973457;28;46572;-72
2023/05/20 14:26:15;;;;;;;;;4.75;3.75;;;;;;;;4975068;28;45424;-72